sensor_id;sensor_type;location;lat;lon;timestamp;pressure;altitude;pressure_sealevel;temperature;humidity
69784;BME280;57054;51.978;4.498;2022-11-13T00:01:54;102763.72;;;8.66;95.67
69784;BME280;57054;51.978;4.498;2022-11-13T00:04:19;102754.97;;;8.65;95.75
69784;BME280;57054;51.978;4.498;2022-11-13T00:06:45;102755.88;;;8.66;95.75
69784;BME280;57054;51.978;4.498;2022-11-13T00:09:10;102753.25;;;8.64;95.88
69784;BME280;57054;51.978;4.498;2022-11-13T00:11:35;102743.66;;;8.63;96.04
69784;BME280;57054;51.978;4.498;2022-11-13T00:14:01;102748.03;;;8.63;95.79
69784;BME280;57054;51.978;4.498;2022-11-13T00:16:26;102748.88;;;8.63;95.85
69784;BME280;57054;51.978;4.498;2022-11-13T00:18:51;102750.63;;;8.63;96.06
69784;BME280;57054;51.978;4.498;2022-11-13T00:21:17;102740.19;;;8.63;96.15
69784;BME280;57054;51.978;4.498;2022-11-13T00:23:43;102743.66;;;8.63;96.08
69784;BME280;57054;51.978;4.498;2022-11-13T00:26:12;102731.50;;;8.62;96.06
69784;BME280;57054;51.978;4.498;2022-11-13T00:28:38;102719.31;;;8.63;96.22
69784;BME280;57054;51.978;4.498;2022-11-13T00:31:04;102722.78;;;8.62;96.30
69784;BME280;57054;51.978;4.498;2022-11-13T00:33:29;102719.31;;;8.61;96.10
69784;BME280;57054;51.978;4.498;2022-11-13T00:36:07;102716.69;;;8.61;96.16
69784;BME280;57054;51.978;4.498;2022-11-13T00:38:35;102710.59;;;8.61;96.37
69784;BME280;57054;51.978;4.498;2022-11-13T00:41:00;102712.34;;;8.60;96.58
69784;BME280;57054;51.978;4.498;2022-11-13T00:43:25;102701.91;;;8.60;96.48
69784;BME280;57054;51.978;4.498;2022-11-13T00:45:51;102699.28;;;8.59;96.44
69784;BME280;57054;51.978;4.498;2022-11-13T00:48:16;102697.53;;;8.59;96.43
69784;BME280;57054;51.978;4.498;2022-11-13T00:50:42;102687.97;;;8.58;96.52
69784;BME280;57054;51.978;4.498;2022-11-13T00:53:07;102698.41;;;8.58;96.59
69784;BME280;57054;51.978;4.498;2022-11-13T00:55:32;102693.22;;;8.57;96.72
69784;BME280;57054;51.978;4.498;2022-11-13T00:57:57;102685.38;;;8.57;96.56
69784;BME280;57054;51.978;4.498;2022-11-13T01:00:23;102678.41;;;8.56;96.56
69784;BME280;57054;51.978;4.498;2022-11-13T01:02:48;102681.00;;;8.56;96.51
69784;BME280;57054;51.978;4.498;2022-11-13T01:05:13;102688.00;;;8.55;96.36
69784;BME280;57054;51.978;4.498;2022-11-13T01:07:38;102678.41;;;8.54;96.56
69784;BME280;57054;51.978;4.498;2022-11-13T01:10:04;102683.63;;;8.54;96.30
69784;BME280;57054;51.978;4.498;2022-11-13T01:12:29;102685.38;;;8.52;96.48
69784;BME280;57054;51.978;4.498;2022-11-13T01:14:55;102679.28;;;8.53;96.38
69784;BME280;57054;51.978;4.498;2022-11-13T01:17:20;102675.78;;;8.54;96.35
69784;BME280;57054;51.978;4.498;2022-11-13T01:19:45;102681.91;;;8.53;96.69
69784;BME280;57054;51.978;4.498;2022-11-13T01:22:10;102675.78;;;8.53;96.51
69784;BME280;57054;51.978;4.498;2022-11-13T01:24:36;102678.41;;;8.53;96.68
69784;BME280;57054;51.978;4.498;2022-11-13T01:27:01;102680.16;;;8.52;96.48
69784;BME280;57054;51.978;4.498;2022-11-13T01:29:26;102677.53;;;8.52;96.74
69784;BME280;57054;51.978;4.498;2022-11-13T01:31:52;102674.06;;;8.50;96.71
69784;BME280;57054;51.978;4.498;2022-11-13T01:34:17;102677.53;;;8.49;96.77
69784;BME280;57054;51.978;4.498;2022-11-13T01:36:42;102667.09;;;8.49;96.60
69784;BME280;57054;51.978;4.498;2022-11-13T01:39:08;102672.31;;;8.48;96.75
69784;BME280;57054;51.978;4.498;2022-11-13T01:41:34;102672.34;;;8.46;96.65
69784;BME280;57054;51.978;4.498;2022-11-13T01:43:59;102673.22;;;8.45;96.95
69784;BME280;57054;51.978;4.498;2022-11-13T01:49:23;102673.19;;;8.42;96.78
69784;BME280;57054;51.978;4.498;2022-11-13T01:51:57;102679.28;;;8.41;96.49
69784;BME280;57054;51.978;4.498;2022-11-13T01:54:34;102670.59;;;8.39;96.79
69784;BME280;57054;51.978;4.498;2022-11-13T01:57:01;102672.31;;;8.38;96.67
69784;BME280;57054;51.978;4.498;2022-11-13T01:59:31;102663.63;;;8.38;97.01
69784;BME280;57054;51.978;4.498;2022-11-13T02:05:02;102664.50;;;8.37;96.81
69784;BME280;57054;51.978;4.498;2022-11-13T02:07:27;102661.91;;;8.37;96.69
69784;BME280;57054;51.978;4.498;2022-11-13T02:09:54;102656.66;;;8.35;96.79
69784;BME280;57054;51.978;4.498;2022-11-13T02:12:20;102652.31;;;8.34;96.76
69784;BME280;57054;51.978;4.498;2022-11-13T02:14:50;102654.06;;;8.34;96.89
69784;BME280;57054;51.978;4.498;2022-11-13T02:20:02;102643.63;;;8.31;96.87
69784;BME280;57054;51.978;4.498;2022-11-13T02:22:34;102644.50;;;8.30;96.87
69784;BME280;57054;51.978;4.498;2022-11-13T02:25:00;102643.63;;;8.29;96.82
69784;BME280;57054;51.978;4.498;2022-11-13T02:27:34;102642.75;;;8.27;96.70
69784;BME280;57054;51.978;4.498;2022-11-13T02:30:20;102641.88;;;8.25;96.55
69784;BME280;57054;51.978;4.498;2022-11-13T02:32:46;102641.03;;;8.24;96.59
69784;BME280;57054;51.978;4.498;2022-11-13T02:35:13;102636.66;;;8.23;96.92
69784;BME280;57054;51.978;4.498;2022-11-13T02:37:39;102641.03;;;8.23;96.52
69784;BME280;57054;51.978;4.498;2022-11-13T02:40:04;102631.44;;;8.20;96.58
69784;BME280;57054;51.978;4.498;2022-11-13T02:42:29;102637.56;;;8.19;96.50
69784;BME280;57054;51.978;4.498;2022-11-13T02:44:55;102640.16;;;8.19;96.49
69784;BME280;57054;51.978;4.498;2022-11-13T02:47:20;102626.25;;;8.17;96.64
69784;BME280;57054;51.978;4.498;2022-11-13T02:49:45;102620.16;;;8.15;96.55
69784;BME280;57054;51.978;4.498;2022-11-13T02:52:10;102620.16;;;8.14;96.91
69784;BME280;57054;51.978;4.498;2022-11-13T02:54:36;102614.94;;;8.14;96.64
69784;BME280;57054;51.978;4.498;2022-11-13T02:57:01;102614.09;;;8.13;96.49
69784;BME280;57054;51.978;4.498;2022-11-13T02:59:26;102604.50;;;8.11;96.50
69784;BME280;57054;51.978;4.498;2022-11-13T03:01:51;102606.25;;;8.10;96.79
69784;BME280;57054;51.978;4.498;2022-11-13T03:04:17;102608.88;;;8.08;96.63
69784;BME280;57054;51.978;4.498;2022-11-13T03:06:42;102610.63;;;8.08;96.70
69784;BME280;57054;51.978;4.498;2022-11-13T03:09:07;102608.00;;;8.08;96.66
69784;BME280;57054;51.978;4.498;2022-11-13T03:11:32;102605.41;;;8.06;96.72
69784;BME280;57054;51.978;4.498;2022-11-13T03:13:58;102600.19;;;8.05;96.72
69784;BME280;57054;51.978;4.498;2022-11-13T03:16:23;102596.72;;;8.04;96.68
69784;BME280;57054;51.978;4.498;2022-11-13T03:18:48;102593.19;;;8.05;96.74
69784;BME280;57054;51.978;4.498;2022-11-13T03:21:14;102589.72;;;8.03;96.83
69784;BME280;57054;51.978;4.498;2022-11-13T03:23:39;102583.66;;;8.03;96.52
69784;BME280;57054;51.978;4.498;2022-11-13T03:26:06;102589.72;;;8.02;96.56
69784;BME280;57054;51.978;4.498;2022-11-13T03:28:32;102588.88;;;8.01;96.45
69784;BME280;57054;51.978;4.498;2022-11-13T03:30:57;102596.69;;;8.00;96.75
69784;BME280;57054;51.978;4.498;2022-11-13T03:33:23;102594.94;;;8.00;96.55
69784;BME280;57054;51.978;4.498;2022-11-13T03:35:48;102596.69;;;7.98;96.60
69784;BME280;57054;51.978;4.498;2022-11-13T03:38:13;102588.88;;;7.98;96.63
69784;BME280;57054;51.978;4.498;2022-11-13T03:40:38;102594.97;;;7.97;96.51
69784;BME280;57054;51.978;4.498;2022-11-13T03:43:04;102594.97;;;7.97;96.67
69784;BME280;57054;51.978;4.498;2022-11-13T03:45:29;102587.16;;;7.96;96.47
69784;BME280;57054;51.978;4.498;2022-11-13T03:47:54;102588.91;;;7.95;96.71
69784;BME280;57054;51.978;4.498;2022-11-13T03:50:19;102593.25;;;7.93;96.38
69784;BME280;57054;51.978;4.498;2022-11-13T03:52:44;102589.75;;;7.93;96.35
69784;BME280;57054;51.978;4.498;2022-11-13T03:55:10;102578.47;;;7.92;96.43
69784;BME280;57054;51.978;4.498;2022-11-13T03:57:35;102581.94;;;7.91;96.28
69784;BME280;57054;51.978;4.498;2022-11-13T04:00:00;102586.28;;;7.89;96.39
69784;BME280;57054;51.978;4.498;2022-11-13T04:02:25;102583.66;;;7.89;96.22
69784;BME280;57054;51.978;4.498;2022-11-13T04:04:51;102585.41;;;7.88;96.23
69784;BME280;57054;51.978;4.498;2022-11-13T04:07:16;102590.63;;;7.87;96.32
69784;BME280;57054;51.978;4.498;2022-11-13T04:09:41;102581.94;;;7.86;95.99
69784;BME280;57054;51.978;4.498;2022-11-13T04:12:06;102580.19;;;7.85;96.04
69784;BME280;57054;51.978;4.498;2022-11-13T04:14:32;102572.38;;;7.84;96.02
69784;BME280;57054;51.978;4.498;2022-11-13T04:16:57;102569.75;;;7.84;95.85
69784;BME280;57054;51.978;4.498;2022-11-13T04:19:22;102571.50;;;7.85;96.06
69784;BME280;57054;51.978;4.498;2022-11-13T04:21:47;102578.47;;;7.84;96.15
69784;BME280;57054;51.978;4.498;2022-11-13T04:24:13;102573.25;;;7.84;95.95
69784;BME280;57054;51.978;4.498;2022-11-13T04:26:38;102575.88;;;7.83;96.29
69784;BME280;57054;51.978;4.498;2022-11-13T04:29:03;102563.69;;;7.82;95.99
69784;BME280;57054;51.978;4.498;2022-11-13T04:31:28;102570.66;;;7.83;96.22
69784;BME280;57054;51.978;4.498;2022-11-13T04:33:54;102572.41;;;7.82;96.14
69784;BME280;57054;51.978;4.498;2022-11-13T04:36:19;102568.03;;;7.81;96.33
69784;BME280;57054;51.978;4.498;2022-11-13T04:38:44;102560.22;;;7.83;96.33
69784;BME280;57054;51.978;4.498;2022-11-13T04:41:11;102557.59;;;7.81;96.29
69784;BME280;57054;51.978;4.498;2022-11-13T04:43:55;102560.22;;;7.81;96.47
69784;BME280;57054;51.978;4.498;2022-11-13T04:46:20;102558.47;;;7.80;96.26
69784;BME280;57054;51.978;4.498;2022-11-13T04:48:45;102561.06;;;7.80;96.47
69784;BME280;57054;51.978;4.498;2022-11-13T04:51:11;102556.75;;;7.79;96.21
69784;BME280;57054;51.978;4.498;2022-11-13T04:53:37;102564.56;;;7.79;96.44
69784;BME280;57054;51.978;4.498;2022-11-13T04:56:02;102559.34;;;7.79;96.29
69784;BME280;57054;51.978;4.498;2022-11-13T04:58:27;102563.72;;;7.79;96.45
69784;BME280;57054;51.978;4.498;2022-11-13T05:00:53;102555.88;;;7.77;96.31
69784;BME280;57054;51.978;4.498;2022-11-13T05:03:18;102555.88;;;7.77;96.68
69784;BME280;57054;51.978;4.498;2022-11-13T05:05:43;102548.06;;;7.76;96.45
69784;BME280;57054;51.978;4.498;2022-11-13T05:08:08;102551.53;;;7.75;96.14
69784;BME280;57054;51.978;4.498;2022-11-13T05:10:34;102554.13;;;7.75;96.27
69784;BME280;57054;51.978;4.498;2022-11-13T05:12:59;102552.41;;;7.74;96.29
69784;BME280;57054;51.978;4.498;2022-11-13T05:15:25;102540.22;;;7.73;96.24
69784;BME280;57054;51.978;4.498;2022-11-13T05:17:50;102535.91;;;7.72;96.16
69784;BME280;57054;51.978;4.498;2022-11-13T05:20:15;102539.38;;;7.71;95.96
69784;BME280;57054;51.978;4.498;2022-11-13T05:22:41;102539.34;;;7.69;96.02
69784;BME280;57054;51.978;4.498;2022-11-13T05:25:06;102538.50;;;7.68;96.02
69784;BME280;57054;51.978;4.498;2022-11-13T05:27:31;102534.16;;;7.69;96.18
69784;BME280;57054;51.978;4.498;2022-11-13T05:29:57;102534.16;;;7.69;96.10
69784;BME280;57054;51.978;4.498;2022-11-13T05:32:22;102528.94;;;7.67;96.33
69784;BME280;57054;51.978;4.498;2022-11-13T05:34:47;102523.72;;;7.67;96.24
69784;BME280;57054;51.978;4.498;2022-11-13T05:37:12;102514.16;;;7.66;96.12
69784;BME280;57054;51.978;4.498;2022-11-13T05:39:38;102516.78;;;7.66;96.21
69784;BME280;57054;51.978;4.498;2022-11-13T05:42:03;102507.22;;;7.67;96.16
69784;BME280;57054;51.978;4.498;2022-11-13T05:44:29;102505.50;;;7.66;96.34
69784;BME280;57054;51.978;4.498;2022-11-13T05:46:54;102500.28;;;7.66;96.41
69784;BME280;57054;51.978;4.498;2022-11-13T05:49:20;102493.31;;;7.65;96.30
69784;BME280;57054;51.978;4.498;2022-11-13T05:51:45;102498.53;;;7.65;96.33
69784;BME280;57054;51.978;4.498;2022-11-13T05:54:10;102495.06;;;7.63;96.48
69784;BME280;57054;51.978;4.498;2022-11-13T05:56:35;102495.06;;;7.63;96.37
69784;BME280;57054;51.978;4.498;2022-11-13T05:59:01;102497.66;;;7.61;96.29
69784;BME280;57054;51.978;4.498;2022-11-13T06:01:29;102500.25;;;7.60;96.30
69784;BME280;57054;51.978;4.498;2022-11-13T06:03:55;102504.63;;;7.59;96.32
69784;BME280;57054;51.978;4.498;2022-11-13T06:06:21;102499.41;;;7.58;96.28
69784;BME280;57054;51.978;4.498;2022-11-13T06:08:47;102489.88;;;7.57;96.21
69784;BME280;57054;51.978;4.498;2022-11-13T06:11:13;102488.09;;;7.54;96.22
69784;BME280;57054;51.978;4.498;2022-11-13T06:13:39;102482.88;;;7.53;96.25
69784;BME280;57054;51.978;4.498;2022-11-13T06:16:06;102486.38;;;7.52;96.32
69784;BME280;57054;51.978;4.498;2022-11-13T06:18:31;102477.72;;;7.49;96.11
69784;BME280;57054;51.978;4.498;2022-11-13T06:21:00;102477.72;;;7.49;96.27
69784;BME280;57054;51.978;4.498;2022-11-13T06:23:26;102470.75;;;7.48;96.19
69784;BME280;57054;51.978;4.498;2022-11-13T06:25:51;102471.59;;;7.49;96.18
69784;BME280;57054;51.978;4.498;2022-11-13T06:28:16;102475.09;;;7.48;96.33
69784;BME280;57054;51.978;4.498;2022-11-13T06:30:42;102479.41;;;7.47;96.25
69784;BME280;57054;51.978;4.498;2022-11-13T06:33:07;102483.78;;;7.45;96.26
69784;BME280;57054;51.978;4.498;2022-11-13T06:35:32;102475.94;;;7.45;96.34
69784;BME280;57054;51.978;4.498;2022-11-13T06:37:57;102468.16;;;7.42;96.39
69784;BME280;57054;51.978;4.498;2022-11-13T06:40:23;102475.97;;;7.42;96.24
69784;BME280;57054;51.978;4.498;2022-11-13T06:42:48;102475.97;;;7.42;96.41
69784;BME280;57054;51.978;4.498;2022-11-13T06:45:13;102483.78;;;7.42;96.24
69784;BME280;57054;51.978;4.498;2022-11-13T06:47:38;102471.63;;;7.41;96.32
69784;BME280;57054;51.978;4.498;2022-11-13T06:50:04;102478.59;;;7.41;96.25
69784;BME280;57054;51.978;4.498;2022-11-13T06:52:30;102469.88;;;7.40;96.38
69784;BME280;57054;51.978;4.498;2022-11-13T06:54:55;102469.00;;;7.41;96.41
69784;BME280;57054;51.978;4.498;2022-11-13T06:57:21;102469.88;;;7.40;96.24
69784;BME280;57054;51.978;4.498;2022-11-13T06:59:46;102465.53;;;7.39;96.37
69784;BME280;57054;51.978;4.498;2022-11-13T07:02:11;102463.78;;;7.38;96.30
69784;BME280;57054;51.978;4.498;2022-11-13T07:04:36;102468.16;;;7.39;96.36
69784;BME280;57054;51.978;4.498;2022-11-13T07:07:02;102462.94;;;7.38;96.13
69784;BME280;57054;51.978;4.498;2022-11-13T07:09:28;102468.16;;;7.36;96.14
69784;BME280;57054;51.978;4.498;2022-11-13T07:11:53;102460.31;;;7.35;96.18
69784;BME280;57054;51.978;4.498;2022-11-13T07:14:18;102462.94;;;7.36;96.32
69784;BME280;57054;51.978;4.498;2022-11-13T07:16:44;102462.94;;;7.35;96.37
69784;BME280;57054;51.978;4.498;2022-11-13T07:19:09;102463.78;;;7.37;96.57
69784;BME280;57054;51.978;4.498;2022-11-13T07:21:34;102461.19;;;7.37;96.35
69784;BME280;57054;51.978;4.498;2022-11-13T07:23:59;102454.25;;;7.37;96.69
69784;BME280;57054;51.978;4.498;2022-11-13T07:26:24;102458.56;;;7.37;96.74
69784;BME280;57054;51.978;4.498;2022-11-13T07:28:50;102454.25;;;7.37;96.79
69784;BME280;57054;51.978;4.498;2022-11-13T07:31:15;102455.97;;;7.38;96.66
69784;BME280;57054;51.978;4.498;2022-11-13T07:33:41;102450.75;;;7.38;96.70
69784;BME280;57054;51.978;4.498;2022-11-13T07:36:07;102449.03;;;7.37;96.89
69784;BME280;57054;51.978;4.498;2022-11-13T07:38:32;102449.03;;;7.39;97.05
69784;BME280;57054;51.978;4.498;2022-11-13T07:40:57;102454.25;;;7.39;97.10
69784;BME280;57054;51.978;4.498;2022-11-13T07:43:23;102449.91;;;7.39;96.94
69784;BME280;57054;51.978;4.498;2022-11-13T07:45:48;102442.09;;;7.38;96.96
69784;BME280;57054;51.978;4.498;2022-11-13T07:48:18;102454.25;;;7.39;97.15
69784;BME280;57054;51.978;4.498;2022-11-13T07:50:44;102457.72;;;7.39;97.10
69784;BME280;57054;51.978;4.498;2022-11-13T07:53:09;102449.91;;;7.39;97.20
69784;BME280;57054;51.978;4.498;2022-11-13T07:55:35;102447.28;;;7.38;97.21
69784;BME280;57054;51.978;4.498;2022-11-13T07:58:00;102447.28;;;7.39;97.05
69784;BME280;57054;51.978;4.498;2022-11-13T08:00:26;102451.66;;;7.39;97.09
69784;BME280;57054;51.978;4.498;2022-11-13T08:02:52;102445.56;;;7.40;97.20
69784;BME280;57054;51.978;4.498;2022-11-13T08:05:17;102450.75;;;7.40;97.40
69784;BME280;57054;51.978;4.498;2022-11-13T08:07:46;102448.16;;;7.40;97.34
69784;BME280;57054;51.978;4.498;2022-11-13T08:10:12;102455.13;;;7.41;97.60
69784;BME280;57054;51.978;4.498;2022-11-13T08:12:37;102451.63;;;7.42;97.60
69784;BME280;57054;51.978;4.498;2022-11-13T08:15:03;102455.13;;;7.42;97.77
69784;BME280;57054;51.978;4.498;2022-11-13T08:17:28;102461.19;;;7.43;97.88
69784;BME280;57054;51.978;4.498;2022-11-13T08:19:53;102460.31;;;7.44;97.89
69784;BME280;57054;51.978;4.498;2022-11-13T08:22:18;102459.44;;;7.45;98.06
69784;BME280;57054;51.978;4.498;2022-11-13T08:24:44;102457.69;;;7.45;98.20
69784;BME280;57054;51.978;4.498;2022-11-13T08:27:09;102456.84;;;7.46;98.17
69784;BME280;57054;51.978;4.498;2022-11-13T08:29:34;102454.25;;;7.46;97.92
69784;BME280;57054;51.978;4.498;2022-11-13T08:32:01;102450.78;;;7.44;97.50
69784;BME280;57054;51.978;4.498;2022-11-13T08:34:26;102451.63;;;7.43;97.59
69784;BME280;57054;51.978;4.498;2022-11-13T08:36:51;102451.63;;;7.43;97.67
69784;BME280;57054;51.978;4.498;2022-11-13T08:39:17;102451.63;;;7.43;97.63
69784;BME280;57054;51.978;4.498;2022-11-13T08:41:42;102452.47;;;7.44;97.86
69784;BME280;57054;51.978;4.498;2022-11-13T08:44:07;102445.56;;;7.44;97.87
69784;BME280;57054;51.978;4.498;2022-11-13T08:46:32;102447.28;;;7.45;97.85
69784;BME280;57054;51.978;4.498;2022-11-13T08:48:58;102441.22;;;7.46;97.91
69784;BME280;57054;51.978;4.498;2022-11-13T08:51:23;102441.22;;;7.46;97.88
69784;BME280;57054;51.978;4.498;2022-11-13T08:53:48;102450.75;;;7.47;97.95
69784;BME280;57054;51.978;4.498;2022-11-13T08:56:14;102433.38;;;7.48;97.98
69784;BME280;57054;51.978;4.498;2022-11-13T08:58:39;102430.78;;;7.49;98.06
69784;BME280;57054;51.978;4.498;2022-11-13T09:01:04;102428.13;;;7.51;98.49
69784;BME280;57054;51.978;4.498;2022-11-13T09:03:29;102425.53;;;7.54;98.52
69784;BME280;57054;51.978;4.498;2022-11-13T09:05:55;102417.72;;;7.56;98.77
69784;BME280;57054;51.978;4.498;2022-11-13T09:08:20;102414.25;;;7.57;98.44
69784;BME280;57054;51.978;4.498;2022-11-13T09:10:45;102415.97;;;7.58;98.73
69784;BME280;57054;51.978;4.498;2022-11-13T09:13:10;102402.06;;;7.59;98.94
69784;BME280;57054;51.978;4.498;2022-11-13T09:15:36;102406.41;;;7.60;98.89
69784;BME280;57054;51.978;4.498;2022-11-13T09:18:02;102401.19;;;7.61;99.05
69784;BME280;57054;51.978;4.498;2022-11-13T09:20:28;102395.09;;;7.62;99.00
69784;BME280;57054;51.978;4.498;2022-11-13T09:22:58;102395.97;;;7.63;99.01
69784;BME280;57054;51.978;4.498;2022-11-13T09:25:23;102389.88;;;7.64;98.91
69784;BME280;57054;51.978;4.498;2022-11-13T09:27:58;102391.59;;;7.66;99.12
69784;BME280;57054;51.978;4.498;2022-11-13T09:30:24;102385.50;;;7.67;99.50
69784;BME280;57054;51.978;4.498;2022-11-13T09:32:55;102391.59;;;7.69;98.99
69784;BME280;57054;51.978;4.498;2022-11-13T09:35:22;102391.56;;;7.71;98.79
69784;BME280;57054;51.978;4.498;2022-11-13T09:37:59;102388.09;;;7.71;98.11
69784;BME280;57054;51.978;4.498;2022-11-13T09:40:27;102384.63;;;7.73;98.35
69784;BME280;57054;51.978;4.498;2022-11-13T09:42:53;102385.50;;;7.74;98.29
69784;BME280;57054;51.978;4.498;2022-11-13T09:45:18;102378.53;;;7.74;97.82
69784;BME280;57054;51.978;4.498;2022-11-13T09:47:43;102373.31;;;7.76;97.37
69784;BME280;57054;51.978;4.498;2022-11-13T09:52:36;102364.59;;;7.80;96.79
69784;BME280;57054;51.978;4.498;2022-11-13T09:55:02;102369.81;;;7.81;96.75
69784;BME280;57054;51.978;4.498;2022-11-13T09:57:45;102369.81;;;7.84;96.99
69784;BME280;57054;51.978;4.498;2022-11-13T10:00:20;102376.72;;;7.87;96.78
69784;BME280;57054;51.978;4.498;2022-11-13T10:03:09;102378.47;;;7.90;96.59
69784;BME280;57054;51.978;4.498;2022-11-13T10:08:18;102386.25;;;7.97;96.62
69784;BME280;57054;51.978;4.498;2022-11-13T10:13:11;102380.13;;;8.03;96.30
69784;BME280;57054;51.978;4.498;2022-11-13T10:15:39;102379.25;;;8.07;96.32
69784;BME280;57054;51.978;4.498;2022-11-13T10:18:07;102373.13;;;8.11;96.06
69784;BME280;57054;51.978;4.498;2022-11-13T10:20:40;102370.50;;;8.14;95.87
69784;BME280;57054;51.978;4.498;2022-11-13T10:23:10;102367.03;;;8.17;95.86
69784;BME280;57054;51.978;4.498;2022-11-13T10:25:36;102378.28;;;8.22;95.89
69784;BME280;57054;51.978;4.498;2022-11-13T10:28:08;102366.06;;;8.24;95.74
69784;BME280;57054;51.978;4.498;2022-11-13T10:30:35;102357.38;;;8.26;95.80
69784;BME280;57054;51.978;4.498;2022-11-13T10:33:00;102359.97;;;8.30;96.00
69784;BME280;57054;51.978;4.498;2022-11-13T10:40:32;102350.31;;;8.41;95.49
69784;BME280;57054;51.978;4.498;2022-11-13T10:43:13;102348.56;;;8.46;95.61
69784;BME280;57054;51.978;4.498;2022-11-13T10:45:39;102347.69;;;8.49;95.49
69784;BME280;57054;51.978;4.498;2022-11-13T10:48:05;102342.44;;;8.52;95.36
69784;BME280;57054;51.978;4.498;2022-11-13T10:50:30;102331.94;;;8.55;95.20
69784;BME280;57054;51.978;4.498;2022-11-13T10:52:56;102331.06;;;8.59;95.22
69784;BME280;57054;51.978;4.498;2022-11-13T10:55:26;102330.16;;;8.61;95.17
69784;BME280;57054;51.978;4.498;2022-11-13T10:57:57;102331.84;;;8.65;94.81
69784;BME280;57054;51.978;4.498;2022-11-13T11:00:29;102324.88;;;8.68;94.67
69784;BME280;57054;51.978;4.498;2022-11-13T11:02:55;102332.69;;;8.71;94.45
69784;BME280;57054;51.978;4.498;2022-11-13T11:05:21;102321.38;;;8.73;94.43
69784;BME280;57054;51.978;4.498;2022-11-13T11:07:47;102322.19;;;8.77;94.56
69784;BME280;57054;51.978;4.498;2022-11-13T11:10:32;102318.66;;;8.81;94.36
69784;BME280;57054;51.978;4.498;2022-11-13T11:13:00;102311.69;;;8.83;93.62
69784;BME280;57054;51.978;4.498;2022-11-13T11:15:28;102308.16;;;8.87;93.70
69784;BME280;57054;51.978;4.498;2022-11-13T11:17:58;102296.78;;;8.91;93.58
69784;BME280;57054;51.978;4.498;2022-11-13T11:20:41;102292.38;;;8.96;93.79
69784;BME280;57054;51.978;4.498;2022-11-13T11:25:35;102288.81;;;9.03;92.90
69784;BME280;57054;51.978;4.498;2022-11-13T11:28:09;102279.19;;;9.07;92.80
69784;BME280;57054;51.978;4.498;2022-11-13T11:30:38;102279.16;;;9.12;93.05
69784;BME280;57054;51.978;4.498;2022-11-13T11:35:44;102265.16;;;9.16;93.36
69784;BME280;57054;51.978;4.498;2022-11-13T11:40:41;102254.63;;;9.22;93.07
69784;BME280;57054;51.978;4.498;2022-11-13T11:43:19;102248.50;;;9.26;93.06
69784;BME280;57054;51.978;4.498;2022-11-13T11:45:47;102247.56;;;9.30;92.46
69784;BME280;57054;51.978;4.498;2022-11-13T11:48:14;102247.53;;;9.33;92.73
69784;BME280;57054;51.978;4.498;2022-11-13T11:50:46;102236.13;;;9.37;92.42
69784;BME280;57054;51.978;4.498;2022-11-13T11:53:16;102230.88;;;9.40;91.66
69784;BME280;57054;51.978;4.498;2022-11-13T11:55:52;102222.97;;;9.44;91.49
69784;BME280;57054;51.978;4.498;2022-11-13T12:00:49;102224.59;;;9.51;90.82
69784;BME280;57054;51.978;4.498;2022-11-13T12:08:21;102213.22;;;9.55;91.04
69784;BME280;57054;51.978;4.498;2022-11-13T12:10:55;102213.22;;;9.55;91.29
69784;BME280;57054;51.978;4.498;2022-11-13T12:13:33;102216.69;;;9.57;91.43
69784;BME280;57054;51.978;4.498;2022-11-13T12:19:20;102204.38;;;9.62;91.92
69784;BME280;57054;51.978;4.498;2022-11-13T12:21:23;102199.97;;;9.66;92.39
69784;BME280;57054;51.978;4.498;2022-11-13T12:26:27;102195.53;;;9.72;91.93
69784;BME280;57054;51.978;4.498;2022-11-13T12:36:47;102165.56;;;9.92;90.90
69784;BME280;57054;51.978;4.498;2022-11-13T12:41:44;102158.50;;;9.97;90.52
69784;BME280;57054;51.978;4.498;2022-11-13T12:44:22;102154.94;;;10.01;89.77
69784;BME280;57054;51.978;4.498;2022-11-13T12:46:48;102146.16;;;10.04;90.11
69784;BME280;57054;51.978;4.498;2022-11-13T12:49:24;102155.72;;;10.06;90.17
69784;BME280;57054;51.978;4.498;2022-11-13T12:51:54;102144.34;;;10.09;90.35
69784;BME280;57054;51.978;4.498;2022-11-13T12:54:33;102149.53;;;10.12;89.95
69784;BME280;57054;51.978;4.498;2022-11-13T12:59:55;102138.97;;;10.15;89.30
69784;BME280;57054;51.978;4.498;2022-11-13T13:17:36;102117.75;;;10.30;89.07
69784;BME280;57054;51.978;4.498;2022-11-13T13:22:32;102115.94;;;10.35;89.34
69784;BME280;57054;51.978;4.498;2022-11-13T13:25:03;102111.53;;;10.37;88.78
69784;BME280;57054;51.978;4.498;2022-11-13T13:27:29;102109.75;;;10.40;88.63
69784;BME280;57054;51.978;4.498;2022-11-13T13:29:57;102107.94;;;10.43;89.00
69784;BME280;57054;51.978;4.498;2022-11-13T13:32:25;102107.06;;;10.44;88.80
69784;BME280;57054;51.978;4.498;2022-11-13T13:40:10;102094.66;;;10.52;88.27
69784;BME280;57054;51.978;4.498;2022-11-13T13:42:50;102096.34;;;10.55;87.95
69784;BME280;57054;51.978;4.498;2022-11-13T13:45:22;102088.47;;;10.55;87.73
69784;BME280;57054;51.978;4.498;2022-11-13T13:47:49;102090.22;;;10.56;87.32
69784;BME280;57054;51.978;4.498;2022-11-13T13:50:19;102094.53;;;10.59;87.38
69784;BME280;57054;51.978;4.498;2022-11-13T13:52:45;102090.13;;;10.61;86.94
69784;BME280;57054;51.978;4.498;2022-11-13T13:55:21;102082.22;;;10.62;86.69
69784;BME280;57054;51.978;4.498;2022-11-13T13:57:49;102084.84;;;10.62;86.68
69784;BME280;57054;51.978;4.498;2022-11-13T14:00:15;102085.72;;;10.63;86.63
69784;BME280;57054;51.978;4.498;2022-11-13T14:02:45;102083.06;;;10.64;87.06
69784;BME280;57054;51.978;4.498;2022-11-13T14:05:31;102080.41;;;10.66;86.92
69784;BME280;57054;51.978;4.498;2022-11-13T14:07:56;102075.16;;;10.66;86.24
69784;BME280;57054;51.978;4.498;2022-11-13T14:10:23;102075.16;;;10.66;86.50
69784;BME280;57054;51.978;4.498;2022-11-13T14:12:48;102070.81;;;10.66;86.57
69784;BME280;57054;51.978;4.498;2022-11-13T14:17:42;102084.72;;;10.68;86.05
69784;BME280;57054;51.978;4.498;2022-11-13T14:20:10;102077.72;;;10.69;86.49